sensor_id;sensor_type;location;lat;lon;timestamp;P1;durP1;ratioP1;P2;durP2;ratioP2
22388;SDS011;11362;48.102;11.620;2023-02-13T00:00:06;3.00;;;2.73;;
22388;SDS011;11362;48.102;11.620;2023-02-13T00:02:33;3.80;;;2.83;;
22388;SDS011;11362;48.102;11.620;2023-02-13T00:04:59;3.13;;;2.47;;
22388;SDS011;11362;48.102;11.620;2023-02-13T00:07:24;3.17;;;2.93;;
22388;SDS011;11362;48.102;11.620;2023-02-13T00:09:49;2.60;;;2.40;;
22388;SDS011;11362;48.102;11.620;2023-02-13T00:12:15;2.90;;;2.70;;
22388;SDS011;11362;48.102;11.620;2023-02-13T00:14:40;3.00;;;2.70;;
22388;SDS011;11362;48.102;11.620;2023-02-13T00:17:06;2.53;;;2.37;;
22388;SDS011;11362;48.102;11.620;2023-02-13T00:19:32;2.20;;;2.10;;
22388;SDS011;11362;48.102;11.620;2023-02-13T00:21:57;2.73;;;2.50;;
22388;SDS011;11362;48.102;11.620;2023-02-13T00:24:22;3.37;;;2.50;;
22388;SDS011;11362;48.102;11.620;2023-02-13T00:26:48;3.43;;;3.13;;
22388;SDS011;11362;48.102;11.620;2023-02-13T00:29:13;3.13;;;2.60;;
22388;SDS011;11362;48.102;11.620;2023-02-13T00:31:38;2.80;;;2.60;;
22388;SDS011;11362;48.102;11.620;2023-02-13T00:34:03;2.70;;;2.50;;
22388;SDS011;11362;48.102;11.620;2023-02-13T00:36:29;3.00;;;2.60;;
22388;SDS011;11362;48.102;11.620;2023-02-13T00:38:54;2.80;;;2.60;;
22388;SDS011;11362;48.102;11.620;2023-02-13T00:41:19;3.87;;;2.70;;
22388;SDS011;11362;48.102;11.620;2023-02-13T00:43:45;2.63;;;2.43;;
22388;SDS011;11362;48.102;11.620;2023-02-13T00:46:11;3.90;;;2.57;;
22388;SDS011;11362;48.102;11.620;2023-02-13T00:48:37;2.77;;;2.57;;
22388;SDS011;11362;48.102;11.620;2023-02-13T00:51:03;2.73;;;2.53;;
22388;SDS011;11362;48.102;11.620;2023-02-13T00:53:29;2.70;;;2.50;;
22388;SDS011;11362;48.102;11.620;2023-02-13T00:55:55;2.47;;;2.30;;
22388;SDS011;11362;48.102;11.620;2023-02-13T00:58:20;2.30;;;2.20;;
22388;SDS011;11362;48.102;11.620;2023-02-13T01:00:46;2.60;;;2.47;;
22388;SDS011;11362;48.102;11.620;2023-02-13T01:03:15;2.77;;;2.57;;
22388;SDS011;11362;48.102;11.620;2023-02-13T01:05:41;2.50;;;2.40;;
22388;SDS011;11362;48.102;11.620;2023-02-13T01:08:08;2.80;;;2.60;;
22388;SDS011;11362;48.102;11.620;2023-02-13T01:10:36;3.03;;;2.83;;
22388;SDS011;11362;48.102;11.620;2023-02-13T01:13:02;3.20;;;2.80;;
22388;SDS011;11362;48.102;11.620;2023-02-13T01:15:27;3.10;;;2.80;;
22388;SDS011;11362;48.102;11.620;2023-02-13T01:17:53;2.97;;;2.77;;
22388;SDS011;11362;48.102;11.620;2023-02-13T01:20:19;3.00;;;2.80;;
22388;SDS011;11362;48.102;11.620;2023-02-13T01:22:44;2.63;;;2.53;;
22388;SDS011;11362;48.102;11.620;2023-02-13T01:25:10;2.70;;;2.50;;
22388;SDS011;11362;48.102;11.620;2023-02-13T01:27:35;3.10;;;2.90;;
22388;SDS011;11362;48.102;11.620;2023-02-13T01:30:00;2.70;;;2.50;;
22388;SDS011;11362;48.102;11.620;2023-02-13T01:32:26;2.77;;;2.57;;
22388;SDS011;11362;48.102;11.620;2023-02-13T01:34:51;2.53;;;2.43;;
22388;SDS011;11362;48.102;11.620;2023-02-13T01:37:16;3.50;;;3.30;;
22388;SDS011;11362;48.102;11.620;2023-02-13T01:39:42;2.80;;;2.60;;
22388;SDS011;11362;48.102;11.620;2023-02-13T01:42:20;2.97;;;2.77;;
22388;SDS011;11362;48.102;11.620;2023-02-13T01:44:50;3.00;;;2.80;;
22388;SDS011;11362;48.102;11.620;2023-02-13T01:47:21;2.70;;;2.50;;
22388;SDS011;11362;48.102;11.620;2023-02-13T01:50:02;3.23;;;3.03;;
22388;SDS011;11362;48.102;11.620;2023-02-13T01:52:32;3.40;;;3.00;;
22388;SDS011;11362;48.102;11.620;2023-02-13T01:54:58;3.07;;;2.87;;
22388;SDS011;11362;48.102;11.620;2023-02-13T01:57:23;2.73;;;2.63;;
22388;SDS011;11362;48.102;11.620;2023-02-13T02:00:00;2.93;;;2.73;;
22388;SDS011;11362;48.102;11.620;2023-02-13T02:02:32;3.00;;;2.80;;
22388;SDS011;11362;48.102;11.620;2023-02-13T02:05:01;2.90;;;2.70;;
22388;SDS011;11362;48.102;11.620;2023-02-13T02:07:29;2.37;;;2.27;;
22388;SDS011;11362;48.102;11.620;2023-02-13T02:09:57;3.23;;;3.03;;
22388;SDS011;11362;48.102;11.620;2023-02-13T02:15:24;2.70;;;2.50;;
22388;SDS011;11362;48.102;11.620;2023-02-13T02:17:50;2.93;;;2.73;;
22388;SDS011;11362;48.102;11.620;2023-02-13T02:26:24;2.60;;;2.50;;
22388;SDS011;11362;48.102;11.620;2023-02-13T02:32:12;2.97;;;2.77;;
22388;SDS011;11362;48.102;11.620;2023-02-13T02:40:27;3.03;;;2.83;;
22388;SDS011;11362;48.102;11.620;2023-02-13T02:48:42;3.07;;;2.87;;
22388;SDS011;11362;48.102;11.620;2023-02-13T02:51:20;2.60;;;2.50;;
22388;SDS011;11362;48.102;11.620;2023-02-13T02:56:57;2.80;;;2.60;;
22388;SDS011;11362;48.102;11.620;2023-02-13T02:59:31;2.27;;;2.17;;
22388;SDS011;11362;48.102;11.620;2023-02-13T03:01:56;2.53;;;2.33;;
22388;SDS011;11362;48.102;11.620;2023-02-13T03:04:25;2.80;;;2.70;;
22388;SDS011;11362;48.102;11.620;2023-02-13T03:06:58;2.80;;;2.60;;
22388;SDS011;11362;48.102;11.620;2023-02-13T03:09:29;2.20;;;2.10;;
22388;SDS011;11362;48.102;11.620;2023-02-13T03:12:00;2.40;;;2.30;;
22388;SDS011;11362;48.102;11.620;2023-02-13T03:14:26;2.50;;;2.40;;
22388;SDS011;11362;48.102;11.620;2023-02-13T03:16:53;2.10;;;2.00;;
22388;SDS011;11362;48.102;11.620;2023-02-13T03:24:57;2.27;;;2.17;;
22388;SDS011;11362;48.102;11.620;2023-02-13T03:33:10;1.93;;;1.90;;
22388;SDS011;11362;48.102;11.620;2023-02-13T03:35:42;2.20;;;2.10;;
22388;SDS011;11362;48.102;11.620;2023-02-13T03:38:17;2.20;;;2.10;;
22388;SDS011;11362;48.102;11.620;2023-02-13T03:40:49;2.40;;;2.30;;
22388;SDS011;11362;48.102;11.620;2023-02-13T03:43:20;2.10;;;2.00;;
22388;SDS011;11362;48.102;11.620;2023-02-13T03:45:46;2.33;;;2.23;;
22388;SDS011;11362;48.102;11.620;2023-02-13T03:48:13;2.57;;;2.47;;
22388;SDS011;11362;48.102;11.620;2023-02-13T03:50:43;2.10;;;2.00;;
22388;SDS011;11362;48.102;11.620;2023-02-13T03:53:10;1.97;;;1.87;;
22388;SDS011;11362;48.102;11.620;2023-02-13T03:55:39;2.07;;;1.97;;
22388;SDS011;11362;48.102;11.620;2023-02-13T03:58:09;2.40;;;2.20;;
22388;SDS011;11362;48.102;11.620;2023-02-13T04:00:43;1.90;;;1.80;;
22388;SDS011;11362;48.102;11.620;2023-02-13T04:03:13;2.03;;;1.93;;
22388;SDS011;11362;48.102;11.620;2023-02-13T04:05:47;2.10;;;2.00;;
22388;SDS011;11362;48.102;11.620;2023-02-13T04:08:15;2.07;;;1.97;;
22388;SDS011;11362;48.102;11.620;2023-02-13T04:10:46;1.83;;;1.73;;
22388;SDS011;11362;48.102;11.620;2023-02-13T04:13:22;1.80;;;1.70;;
22388;SDS011;11362;48.102;11.620;2023-02-13T04:15:57;2.03;;;1.93;;
22388;SDS011;11362;48.102;11.620;2023-02-13T04:18:29;1.90;;;1.80;;
22388;SDS011;11362;48.102;11.620;2023-02-13T04:20:56;1.97;;;1.87;;
22388;SDS011;11362;48.102;11.620;2023-02-13T04:23:26;1.77;;;1.77;;
22388;SDS011;11362;48.102;11.620;2023-02-13T04:25:52;1.97;;;1.87;;
22388;SDS011;11362;48.102;11.620;2023-02-13T04:28:19;1.53;;;1.47;;
22388;SDS011;11362;48.102;11.620;2023-02-13T04:30:45;1.60;;;1.60;;
22388;SDS011;11362;48.102;11.620;2023-02-13T04:33:10;1.40;;;1.40;;
22388;SDS011;11362;48.102;11.620;2023-02-13T04:35:36;1.60;;;1.60;;
22388;SDS011;11362;48.102;11.620;2023-02-13T04:38:01;1.63;;;1.53;;
22388;SDS011;11362;48.102;11.620;2023-02-13T04:40:27;1.53;;;1.53;;
22388;SDS011;11362;48.102;11.620;2023-02-13T04:42:52;1.87;;;1.77;;
22388;SDS011;11362;48.102;11.620;2023-02-13T04:45:17;1.37;;;1.37;;
22388;SDS011;11362;48.102;11.620;2023-02-13T04:47:48;1.40;;;1.40;;
22388;SDS011;11362;48.102;11.620;2023-02-13T04:50:14;1.53;;;1.53;;
22388;SDS011;11362;48.102;11.620;2023-02-13T04:52:40;1.90;;;1.80;;
22388;SDS011;11362;48.102;11.620;2023-02-13T04:55:05;1.43;;;1.43;;
22388;SDS011;11362;48.102;11.620;2023-02-13T04:57:30;1.50;;;1.50;;
22388;SDS011;11362;48.102;11.620;2023-02-13T04:59:56;1.63;;;1.53;;
22388;SDS011;11362;48.102;11.620;2023-02-13T05:02:21;1.80;;;1.70;;
22388;SDS011;11362;48.102;11.620;2023-02-13T05:04:46;1.63;;;1.63;;
22388;SDS011;11362;48.102;11.620;2023-02-13T05:07:12;1.50;;;1.47;;
22388;SDS011;11362;48.102;11.620;2023-02-13T05:09:37;1.40;;;1.40;;
22388;SDS011;11362;48.102;11.620;2023-02-13T05:12:02;1.73;;;1.63;;
22388;SDS011;11362;48.102;11.620;2023-02-13T05:14:28;1.30;;;1.30;;
22388;SDS011;11362;48.102;11.620;2023-02-13T05:16:53;1.63;;;1.53;;
22388;SDS011;11362;48.102;11.620;2023-02-13T05:19:18;1.60;;;1.50;;
22388;SDS011;11362;48.102;11.620;2023-02-13T05:21:43;1.43;;;1.43;;
22388;SDS011;11362;48.102;11.620;2023-02-13T05:24:09;1.37;;;1.37;;
22388;SDS011;11362;48.102;11.620;2023-02-13T05:26:34;1.37;;;1.37;;
22388;SDS011;11362;48.102;11.620;2023-02-13T05:28:59;1.10;;;1.10;;
22388;SDS011;11362;48.102;11.620;2023-02-13T05:31:25;1.40;;;1.40;;
22388;SDS011;11362;48.102;11.620;2023-02-13T05:33:50;1.23;;;1.23;;
22388;SDS011;11362;48.102;11.620;2023-02-13T05:36:15;1.20;;;1.20;;
22388;SDS011;11362;48.102;11.620;2023-02-13T05:38:41;1.20;;;1.20;;
22388;SDS011;11362;48.102;11.620;2023-02-13T05:41:06;1.40;;;1.30;;
22388;SDS011;11362;48.102;11.620;2023-02-13T05:43:31;1.40;;;1.40;;
22388;SDS011;11362;48.102;11.620;2023-02-13T05:46:03;1.33;;;1.27;;
22388;SDS011;11362;48.102;11.620;2023-02-13T05:48:30;1.20;;;1.20;;
22388;SDS011;11362;48.102;11.620;2023-02-13T05:50:55;1.77;;;1.57;;
22388;SDS011;11362;48.102;11.620;2023-02-13T05:53:20;1.40;;;1.30;;
22388;SDS011;11362;48.102;11.620;2023-02-13T05:55:46;1.20;;;1.20;;
22388;SDS011;11362;48.102;11.620;2023-02-13T05:58:11;1.40;;;1.30;;
22388;SDS011;11362;48.102;11.620;2023-02-13T06:00:36;1.30;;;1.30;;
22388;SDS011;11362;48.102;11.620;2023-02-13T06:03:01;1.50;;;1.50;;
22388;SDS011;11362;48.102;11.620;2023-02-13T06:05:27;1.60;;;1.50;;
22388;SDS011;11362;48.102;11.620;2023-02-13T06:07:52;1.60;;;1.60;;
22388;SDS011;11362;48.102;11.620;2023-02-13T06:10:17;2.17;;;1.77;;
22388;SDS011;11362;48.102;11.620;2023-02-13T06:12:43;5.20;;;1.50;;
22388;SDS011;11362;48.102;11.620;2023-02-13T06:15:08;1.60;;;1.50;;
22388;SDS011;11362;48.102;11.620;2023-02-13T06:17:33;3.40;;;1.70;;
22388;SDS011;11362;48.102;11.620;2023-02-13T06:19:59;4.80;;;2.10;;
22388;SDS011;11362;48.102;11.620;2023-02-13T06:22:24;5.13;;;3.10;;
22388;SDS011;11362;48.102;11.620;2023-02-13T06:24:49;10.90;;;2.40;;
22388;SDS011;11362;48.102;11.620;2023-02-13T06:27:15;5.80;;;2.70;;
22388;SDS011;11362;48.102;11.620;2023-02-13T06:29:40;8.47;;;2.63;;
22388;SDS011;11362;48.102;11.620;2023-02-13T06:32:05;6.90;;;2.10;;
22388;SDS011;11362;48.102;11.620;2023-02-13T06:34:30;7.93;;;2.43;;
22388;SDS011;11362;48.102;11.620;2023-02-13T06:36:56;28.47;;;3.50;;
22388;SDS011;11362;48.102;11.620;2023-02-13T06:39:21;7.10;;;2.67;;
22388;SDS011;11362;48.102;11.620;2023-02-13T06:41:46;7.00;;;2.47;;
22388;SDS011;11362;48.102;11.620;2023-02-13T06:44:12;11.20;;;2.33;;
22388;SDS011;11362;48.102;11.620;2023-02-13T06:46:37;12.27;;;3.43;;
22388;SDS011;11362;48.102;11.620;2023-02-13T06:49:02;4.83;;;2.43;;
22388;SDS011;11362;48.102;11.620;2023-02-13T06:51:27;5.63;;;2.50;;
22388;SDS011;11362;48.102;11.620;2023-02-13T06:53:53;2.53;;;2.33;;
22388;SDS011;11362;48.102;11.620;2023-02-13T06:56:18;11.40;;;2.23;;
22388;SDS011;11362;48.102;11.620;2023-02-13T06:58:43;9.17;;;2.50;;
22388;SDS011;11362;48.102;11.620;2023-02-13T07:01:09;7.33;;;2.53;;
22388;SDS011;11362;48.102;11.620;2023-02-13T07:03:34;2.23;;;2.00;;
22388;SDS011;11362;48.102;11.620;2023-02-13T07:05:59;7.43;;;2.10;;
22388;SDS011;11362;48.102;11.620;2023-02-13T07:08:24;2.73;;;2.30;;
22388;SDS011;11362;48.102;11.620;2023-02-13T07:10:50;3.40;;;2.20;;
22388;SDS011;11362;48.102;11.620;2023-02-13T07:13:15;2.33;;;1.80;;
22388;SDS011;11362;48.102;11.620;2023-02-13T07:15:40;7.53;;;2.40;;
22388;SDS011;11362;48.102;11.620;2023-02-13T07:18:06;8.13;;;2.27;;
22388;SDS011;11362;48.102;11.620;2023-02-13T07:20:31;5.37;;;2.40;;
22388;SDS011;11362;48.102;11.620;2023-02-13T07:22:57;4.47;;;2.20;;
22388;SDS011;11362;48.102;11.620;2023-02-13T07:25:23;5.90;;;2.50;;
22388;SDS011;11362;48.102;11.620;2023-02-13T07:27:48;6.00;;;2.37;;
22388;SDS011;11362;48.102;11.620;2023-02-13T07:30:14;2.50;;;2.30;;
22388;SDS011;11362;48.102;11.620;2023-02-13T07:32:39;5.10;;;2.43;;
22388;SDS011;11362;48.102;11.620;2023-02-13T07:35:04;2.43;;;1.97;;
22388;SDS011;11362;48.102;11.620;2023-02-13T07:37:30;7.83;;;2.20;;
22388;SDS011;11362;48.102;11.620;2023-02-13T07:39:55;10.80;;;2.63;;
22388;SDS011;11362;48.102;11.620;2023-02-13T07:42:21;11.07;;;2.93;;
22388;SDS011;11362;48.102;11.620;2023-02-13T07:44:46;9.17;;;2.53;;
22388;SDS011;11362;48.102;11.620;2023-02-13T07:47:11;7.10;;;2.53;;
22388;SDS011;11362;48.102;11.620;2023-02-13T07:49:37;4.17;;;2.27;;
22388;SDS011;11362;48.102;11.620;2023-02-13T07:52:03;2.67;;;2.10;;
22388;SDS011;11362;48.102;11.620;2023-02-13T07:54:29;10.50;;;2.63;;
22388;SDS011;11362;48.102;11.620;2023-02-13T07:56:55;6.33;;;2.30;;
22388;SDS011;11362;48.102;11.620;2023-02-13T07:59:20;4.50;;;2.20;;
22388;SDS011;11362;48.102;11.620;2023-02-13T08:01:45;3.67;;;2.07;;
22388;SDS011;11362;48.102;11.620;2023-02-13T08:04:11;4.03;;;1.87;;
22388;SDS011;11362;48.102;11.620;2023-02-13T08:06:39;4.93;;;2.03;;
22388;SDS011;11362;48.102;11.620;2023-02-13T08:09:05;3.07;;;1.80;;
22388;SDS011;11362;48.102;11.620;2023-02-13T08:11:31;4.70;;;2.23;;
22388;SDS011;11362;48.102;11.620;2023-02-13T08:13:57;4.10;;;2.00;;
22388;SDS011;11362;48.102;11.620;2023-02-13T08:16:22;5.33;;;1.90;;
22388;SDS011;11362;48.102;11.620;2023-02-13T08:18:48;3.77;;;2.20;;
22388;SDS011;11362;48.102;11.620;2023-02-13T08:21:13;5.20;;;2.07;;
22388;SDS011;11362;48.102;11.620;2023-02-13T08:23:38;4.07;;;1.93;;
22388;SDS011;11362;48.102;11.620;2023-02-13T08:26:03;4.73;;;2.37;;
22388;SDS011;11362;48.102;11.620;2023-02-13T08:28:29;3.57;;;2.03;;
22388;SDS011;11362;48.102;11.620;2023-02-13T08:30:54;2.60;;;1.80;;
22388;SDS011;11362;48.102;11.620;2023-02-13T08:33:19;4.67;;;1.80;;
22388;SDS011;11362;48.102;11.620;2023-02-13T08:35:45;2.73;;;1.73;;
22388;SDS011;11362;48.102;11.620;2023-02-13T08:38:10;6.00;;;2.10;;
22388;SDS011;11362;48.102;11.620;2023-02-13T08:40:35;4.57;;;1.80;;
22388;SDS011;11362;48.102;11.620;2023-02-13T08:43:01;2.73;;;1.93;;
22388;SDS011;11362;48.102;11.620;2023-02-13T08:45:27;3.87;;;2.23;;
22388;SDS011;11362;48.102;11.620;2023-02-13T08:47:56;3.47;;;2.57;;
22388;SDS011;11362;48.102;11.620;2023-02-13T08:50:22;4.47;;;2.77;;
22388;SDS011;11362;48.102;11.620;2023-02-13T08:52:47;2.40;;;2.20;;
22388;SDS011;11362;48.102;11.620;2023-02-13T08:55:13;3.13;;;2.20;;
22388;SDS011;11362;48.102;11.620;2023-02-13T08:57:38;2.33;;;2.13;;
22388;SDS011;11362;48.102;11.620;2023-02-13T09:00:03;2.57;;;2.37;;
22388;SDS011;11362;48.102;11.620;2023-02-13T09:02:29;2.27;;;1.73;;
22388;SDS011;11362;48.102;11.620;2023-02-13T09:04:55;2.87;;;1.67;;
22388;SDS011;11362;48.102;11.620;2023-02-13T09:07:20;2.17;;;1.93;;
22388;SDS011;11362;48.102;11.620;2023-02-13T09:09:45;1.60;;;1.50;;
22388;SDS011;11362;48.102;11.620;2023-02-13T09:12:10;1.83;;;1.73;;
22388;SDS011;11362;48.102;11.620;2023-02-13T09:14:36;2.20;;;2.00;;
22388;SDS011;11362;48.102;11.620;2023-02-13T09:17:01;2.20;;;2.00;;
22388;SDS011;11362;48.102;11.620;2023-02-13T09:19:26;2.20;;;2.00;;
22388;SDS011;11362;48.102;11.620;2023-02-13T09:21:51;3.27;;;1.80;;
22388;SDS011;11362;48.102;11.620;2023-02-13T09:24:17;2.27;;;2.10;;
22388;SDS011;11362;48.102;11.620;2023-02-13T09:26:42;1.90;;;1.60;;
22388;SDS011;11362;48.102;11.620;2023-02-13T09:29:07;2.30;;;2.07;;
22388;SDS011;11362;48.102;11.620;2023-02-13T09:31:32;4.67;;;2.00;;
22388;SDS011;11362;48.102;11.620;2023-02-13T09:33:58;2.33;;;1.87;;
22388;SDS011;11362;48.102;11.620;2023-02-13T09:36:23;3.37;;;2.00;;
22388;SDS011;11362;48.102;11.620;2023-02-13T09:38:55;5.43;;;2.50;;
22388;SDS011;11362;48.102;11.620;2023-02-13T09:41:25;8.37;;;2.50;;
22388;SDS011;11362;48.102;11.620;2023-02-13T09:46:34;5.20;;;2.23;;
22388;SDS011;11362;48.102;11.620;2023-02-13T09:49:04;6.83;;;2.03;;
22388;SDS011;11362;48.102;11.620;2023-02-13T09:51:34;4.77;;;2.03;;
22388;SDS011;11362;48.102;11.620;2023-02-13T09:54:04;4.67;;;2.13;;
22388;SDS011;11362;48.102;11.620;2023-02-13T10:02:00;6.10;;;2.67;;
22388;SDS011;11362;48.102;11.620;2023-02-13T10:10:56;2.60;;;2.10;;
22388;SDS011;11362;48.102;11.620;2023-02-13T10:16:29;4.40;;;2.00;;
22388;SDS011;11362;48.102;11.620;2023-02-13T10:19:15;3.90;;;2.30;;
22388;SDS011;11362;48.102;11.620;2023-02-13T10:21:59;2.53;;;2.30;;
22388;SDS011;11362;48.102;11.620;2023-02-13T10:24:37;2.87;;;2.43;;
22388;SDS011;11362;48.102;11.620;2023-02-13T10:27:16;3.40;;;2.20;;
22388;SDS011;11362;48.102;11.620;2023-02-13T10:30:01;2.30;;;2.10;;
22388;SDS011;11362;48.102;11.620;2023-02-13T10:35:30;3.60;;;2.10;;
22388;SDS011;11362;48.102;11.620;2023-02-13T10:37:58;2.27;;;2.07;;
22388;SDS011;11362;48.102;11.620;2023-02-13T10:40:31;2.67;;;2.47;;
22388;SDS011;11362;48.102;11.620;2023-02-13T10:43:11;3.10;;;1.87;;
22388;SDS011;11362;48.102;11.620;2023-02-13T10:48:40;3.17;;;2.20;;
22388;SDS011;11362;48.102;11.620;2023-02-13T10:51:29;2.40;;;2.20;;
22388;SDS011;11362;48.102;11.620;2023-02-13T10:54:10;2.40;;;2.20;;
22388;SDS011;11362;48.102;11.620;2023-02-13T10:59:45;2.17;;;1.90;;
22388;SDS011;11362;48.102;11.620;2023-02-13T11:02:20;2.57;;;1.73;;
22388;SDS011;11362;48.102;11.620;2023-02-13T11:04:48;1.73;;;1.63;;
22388;SDS011;11362;48.102;11.620;2023-02-13T11:07:17;3.53;;;1.77;;
22388;SDS011;11362;48.102;11.620;2023-02-13T11:09:48;2.07;;;1.93;;
22388;SDS011;11362;48.102;11.620;2023-02-13T11:12:30;2.77;;;1.90;;
22388;SDS011;11362;48.102;11.620;2023-02-13T11:14:58;2.40;;;2.20;;
22388;SDS011;11362;48.102;11.620;2023-02-13T11:17:33;2.73;;;2.50;;
22388;SDS011;11362;48.102;11.620;2023-02-13T11:20:03;4.20;;;1.97;;
22388;SDS011;11362;48.102;11.620;2023-02-13T11:22:46;2.57;;;1.87;;
22388;SDS011;11362;48.102;11.620;2023-02-13T11:25:17;1.80;;;1.70;;
22388;SDS011;11362;48.102;11.620;2023-02-13T11:28:09;2.23;;;1.77;;
22388;SDS011;11362;48.102;11.620;2023-02-13T11:30:39;3.17;;;1.97;;
22388;SDS011;11362;48.102;11.620;2023-02-13T11:33:06;2.53;;;1.67;;
22388;SDS011;11362;48.102;11.620;2023-02-13T11:35:45;2.27;;;2.00;;
22388;SDS011;11362;48.102;11.620;2023-02-13T11:40:40;1.60;;;1.50;;
22388;SDS011;11362;48.102;11.620;2023-02-13T11:43:07;4.57;;;1.90;;
22388;SDS011;11362;48.102;11.620;2023-02-13T11:45:41;1.77;;;1.50;;
22388;SDS011;11362;48.102;11.620;2023-02-13T11:48:08;1.77;;;1.30;;
22388;SDS011;11362;48.102;11.620;2023-02-13T11:50:43;1.57;;;1.40;;
22388;SDS011;11362;48.102;11.620;2023-02-13T11:53:17;2.50;;;1.67;;
22388;SDS011;11362;48.102;11.620;2023-02-13T11:58:34;4.20;;;3.77;;
22388;SDS011;11362;48.102;11.620;2023-02-13T12:01:33;4.87;;;3.00;;
22388;SDS011;11362;48.102;11.620;2023-02-13T12:04:03;2.50;;;2.30;;
22388;SDS011;11362;48.102;11.620;2023-02-13T12:06:28;2.10;;;2.00;;
22388;SDS011;11362;48.102;11.620;2023-02-13T12:08:54;2.53;;;2.33;;
22388;SDS011;11362;48.102;11.620;2023-02-13T12:13:57;2.50;;;2.30;;
22388;SDS011;11362;48.102;11.620;2023-02-13T12:16:27;3.00;;;2.50;;
22388;SDS011;11362;48.102;11.620;2023-02-13T12:18:57;2.70;;;2.50;;
22388;SDS011;11362;48.102;11.620;2023-02-13T12:21:39;6.53;;;2.63;;
22388;SDS011;11362;48.102;11.620;2023-02-13T12:24:29;3.20;;;2.23;;
22388;SDS011;11362;48.102;11.620;2023-02-13T12:27:18;3.07;;;2.23;;
22388;SDS011;11362;48.102;11.620;2023-02-13T12:33:13;2.70;;;2.33;;
22388;SDS011;11362;48.102;11.620;2023-02-13T12:41:51;2.53;;;2.10;;
22388;SDS011;11362;48.102;11.620;2023-02-13T12:47:25;4.50;;;2.23;;
22388;SDS011;11362;48.102;11.620;2023-02-13T12:55:39;3.60;;;3.27;;
22388;SDS011;11362;48.102;11.620;2023-02-13T13:00:57;4.90;;;2.60;;
22388;SDS011;11362;48.102;11.620;2023-02-13T13:08:57;2.47;;;2.27;;
22388;SDS011;11362;48.102;11.620;2023-02-13T13:17:10;2.77;;;2.17;;
22388;SDS011;11362;48.102;11.620;2023-02-13T13:19:56;2.10;;;1.97;;
22388;SDS011;11362;48.102;11.620;2023-02-13T13:22:48;2.40;;;2.10;;
22388;SDS011;11362;48.102;11.620;2023-02-13T13:28:15;3.17;;;2.27;;
22388;SDS011;11362;48.102;11.620;2023-02-13T13:30:41;2.13;;;1.93;;
22388;SDS011;11362;48.102;11.620;2023-02-13T13:33:13;3.47;;;2.40;;
22388;SDS011;11362;48.102;11.620;2023-02-13T13:38:36;2.60;;;2.40;;
22388;SDS011;11362;48.102;11.620;2023-02-13T13:44:19;1.93;;;1.83;;
22388;SDS011;11362;48.102;11.620;2023-02-13T13:52:26;2.23;;;1.97;;
22388;SDS011;11362;48.102;11.620;2023-02-13T13:54:54;4.90;;;2.20;;
22388;SDS011;11362;48.102;11.620;2023-02-13T13:57:22;5.10;;;2.40;;
22388;SDS011;11362;48.102;11.620;2023-02-13T14:04:43;2.07;;;1.93;;
22388;SDS011;11362;48.102;11.620;2023-02-13T14:07:24;3.30;;;2.43;;
22388;SDS011;11362;48.102;11.620;2023-02-13T14:09:49;4.73;;;2.03;;
22388;SDS011;11362;48.102;11.620;2023-02-13T14:14:48;2.00;;;1.90;;
22388;SDS011;11362;48.102;11.620;2023-02-13T14:17:15;3.57;;;2.20;;
22388;SDS011;11362;48.102;11.620;2023-02-13T14:20:01;4.90;;;2.73;;
22388;SDS011;11362;48.102;11.620;2023-02-13T14:22:35;4.00;;;2.17;;
22388;SDS011;11362;48.102;11.620;2023-02-13T14:25:04;2.90;;;2.47;;
22388;SDS011;11362;48.102;11.620;2023-02-13T14:27:32;8.27;;;2.43;;
22388;SDS011;11362;48.102;11.620;2023-02-13T14:29:59;10.03;;;2.23;;
22388;SDS011;11362;48.102;11.620;2023-02-13T14:32:37;4.23;;;2.50;;
22388;SDS011;11362;48.102;11.620;2023-02-13T14:35:05;5.40;;;2.37;;
22388;SDS011;11362;48.102;11.620;2023-02-13T14:37:55;6.93;;;2.70;;
22388;SDS011;11362;48.102;11.620;2023-02-13T14:42:55;5.27;;;2.40;;
22388;SDS011;11362;48.102;11.620;2023-02-13T14:45:26;7.33;;;2.50;;
22388;SDS011;11362;48.102;11.620;2023-02-13T14:47:55;6.43;;;2.40;;
22388;SDS011;11362;48.102;11.620;2023-02-13T14:50:26;6.30;;;2.30;;
22388;SDS011;11362;48.102;11.620;2023-02-13T14:52:55;7.33;;;2.30;;
22388;SDS011;11362;48.102;11.620;2023-02-13T14:55:43;9.63;;;2.57;;
22388;SDS011;11362;48.102;11.620;2023-02-13T14:58:11;8.63;;;2.93;;
22388;SDS011;11362;48.102;11.620;2023-02-13T15:00:45;7.23;;;2.20;;
22388;SDS011;11362;48.102;11.620;2023-02-13T15:03:28;4.93;;;2.20;;
22388;SDS011;11362;48.102;11.620;2023-02-13T15:06:02;7.67;;;2.67;;
22388;SDS011;11362;48.102;11.620;2023-02-13T15:08:31;6.47;;;2.57;;
22388;SDS011;11362;48.102;11.620;2023-02-13T15:11:01;6.43;;;2.50;;
22388;SDS011;11362;48.102;11.620;2023-02-13T15:13:33;5.67;;;2.80;;
22388;SDS011;11362;48.102;11.620;2023-02-13T15:16:07;7.40;;;2.47;;
22388;SDS011;11362;48.102;11.620;2023-02-13T15:21:04;14.33;;;2.57;;
22388;SDS011;11362;48.102;11.620;2023-02-13T15:23:30;5.83;;;2.40;;
22388;SDS011;11362;48.102;11.620;2023-02-13T15:25:58;7.07;;;3.00;;
22388;SDS011;11362;48.102;11.620;2023-02-13T15:28:30;8.30;;;2.60;;
22388;SDS011;11362;48.102;11.620;2023-02-13T15:30:57;9.67;;;3.17;;
22388;SDS011;11362;48.102;11.620;2023-02-13T15:33:30;6.00;;;2.90;;
22388;SDS011;11362;48.102;11.620;2023-02-13T15:35:59;6.13;;;3.30;;
22388;SDS011;11362;48.102;11.620;2023-02-13T15:38:29;7.53;;;3.00;;
22388;SDS011;11362;48.102;11.620;2023-02-13T15:41:03;6.70;;;2.83;;
22388;SDS011;11362;48.102;11.620;2023-02-13T15:43:33;6.37;;;3.00;;
22388;SDS011;11362;48.102;11.620;2023-02-13T15:46:02;5.37;;;2.80;;
22388;SDS011;11362;48.102;11.620;2023-02-13T15:48:47;7.67;;;2.70;;
22388;SDS011;11362;48.102;11.620;2023-02-13T15:51:19;7.87;;;2.90;;
22388;SDS011;11362;48.102;11.620;2023-02-13T15:54:29;7.03;;;2.47;;
22388;SDS011;11362;48.102;11.620;2023-02-13T15:56:49;9.90;;;2.97;;
22388;SDS011;11362;48.102;11.620;2023-02-13T15:59:16;8.53;;;2.97;;
22388;SDS011;11362;48.102;11.620;2023-02-13T16:01:43;10.27;;;3.67;;
22388;SDS011;11362;48.102;11.620;2023-02-13T16:04:09;11.20;;;4.00;;
22388;SDS011;11362;48.102;11.620;2023-02-13T16:06:39;8.37;;;2.83;;
22388;SDS011;11362;48.102;11.620;2023-02-13T16:09:20;9.60;;;3.03;;
22388;SDS011;11362;48.102;11.620;2023-02-13T16:11:56;10.50;;;2.70;;
22388;SDS011;11362;48.102;11.620;2023-02-13T16:14:25;14.00;;;3.73;;
22388;SDS011;11362;48.102;11.620;2023-02-13T16:19:31;21.23;;;3.50;;
22388;SDS011;11362;48.102;11.620;2023-02-13T16:22:17;13.50;;;3.50;;
22388;SDS011;11362;48.102;11.620;2023-02-13T16:24:51;11.80;;;3.20;;
22388;SDS011;11362;48.102;11.620;2023-02-13T16:27:19;18.73;;;4.30;;
22388;SDS011;11362;48.102;11.620;2023-02-13T16:29:48;10.83;;;3.93;;
22388;SDS011;11362;48.102;11.620;2023-02-13T16:32:23;12.00;;;3.90;;
22388;SDS011;11362;48.102;11.620;2023-02-13T16:34:52;13.07;;;3.80;;
22388;SDS011;11362;48.102;11.620;2023-02-13T16:37:25;8.97;;;3.67;;
22388;SDS011;11362;48.102;11.620;2023-02-13T16:39:55;14.43;;;4.13;;
22388;SDS011;11362;48.102;11.620;2023-02-13T16:42:21;8.43;;;3.83;;
22388;SDS011;11362;48.102;11.620;2023-02-13T16:44:46;12.47;;;3.57;;
22388;SDS011;11362;48.102;11.620;2023-02-13T16:47:19;9.30;;;3.10;;
22388;SDS011;11362;48.102;11.620;2023-02-13T16:49:50;10.53;;;2.83;;
22388;SDS011;11362;48.102;11.620;2023-02-13T16:52:20;9.37;;;2.93;;
22388;SDS011;11362;48.102;11.620;2023-02-13T16:54:53;8.73;;;3.40;;
22388;SDS011;11362;48.102;11.620;2023-02-13T16:57:22;14.33;;;3.73;;